Airfield :
LOGIN :

Register | Disclaimer

   EN    FR    IT 

 










Legend :    VFR   Marginal VFR   IFR   Intensive IFR   Very Intensive IFR
Visi :
Ceiling :
>= 8 km
>= 3000ft
5 to 8 km
1000 to 3000 ft
1500m to 5 km
500 to 1000 ft
800 to 1500m
200 to 500 ft
< 800m
< 200 ft
Symbols :   Thunderstorms  Fog  Heavy snow  Heavy precipitations  Wind > 20 kt
SIGMETs :     Misc.  Thunderstorms  Icing  Turbulence  Mountain Waves  Volcanic Ashes







- Airport Elevation : 327 ft
- IATA code : BHX
- Download approach charts


EGBB - Birmingham

CURRENT METAR :
  • 150950Z 32013KT CAVOK 03/00 Q0999

EXPIRED METARs :
  • 150920Z 32015KT CAVOK 02/00 Q0998
  • 150850Z 31011KT 9999 FEW014 02/00 Q0997
  • 150820Z 31013KT 9999 -DZ FEW016 02/00 Q0996
  • 150750Z 32013KT CAVOK 02/00 Q0995
  • 150720Z 32014KT CAVOK 01/00 Q0995

TAF AMD TAF EGBB
Valid from the 15 at 08:00 until the 16 at 06:00 UTC


150832Z 1508/1606 32012KT 9999 FEW025
PROB30
TEMPO 1509/1517 34015G25KT
BECMG 1521/1524 VRB05KT
ATIS : +44 121 780 0910
No reported NOTAMs for that airfield.



MET'MAP, your aeronautical weather chart ! - Copyright ORBIFLY December 2007 - Disclaimer

ORBIFLY MET'MAP TEAM :

Programming & Development : Alexandra Zaïnal
Concept & Development : Baudouin d'Aumeries
Co-Development & Prog : Marc-Olivier Méhu
Technical & hardware support : Manuel Goepfert

Contact : metmap@orbifly.com




SOURCES & CREDITS :

   NOAA